Time;durP1;ratioP1;P1;durP2;ratioP2;P2;SDS_P1;SDS_P2;PMS_P1;PMS_P2;Temp;Humidity;BMP_temperature;BMP_pressure;BME280_temperature;BME280_humidity;BME280_pressure;Samples;Min_cycle;Max_cycle;Signal;HPM_P1;HPM_P2
2023/12/14 00:01:14;;;;;;;;;;;22.40;41.80;;;;;;5036940;28;19925;-49
2023/12/14 00:03:41;;;;;;;;;;;22.50;41.80;;;;;;5028029;28;19929;-54
2023/12/14 00:06:08;;;;;;;;;;;22.40;41.80;;;;;;5017140;28;19925;-54
2023/12/14 00:08:35;;;;;;;;;;;22.40;41.80;;;;;;5017145;28;20290;-50
2023/12/14 00:11:06;;;;;;;;;;;22.40;41.80;;;;;;5016799;28;19976;-50
2023/12/14 00:13:34;;;;;;;;;;;22.40;41.80;;;;;;5016754;28;19929;-52
2023/12/14 00:16:01;;;;;;;;;;;22.40;41.80;;;;;;5016914;28;19925;-50
2023/12/14 00:18:28;;;;;;;;;;;22.40;41.90;;;;;;4999506;28;19925;-52
2023/12/14 00:20:56;;;;;;;;;;;22.40;41.80;;;;;;5016475;28;19925;-50
2023/12/14 00:23:23;;;;;;;;;;;22.40;41.80;;;;;;5016765;28;19940;-49
2023/12/14 00:25:50;;;;;;;;;;;22.40;41.80;;;;;;5016564;28;19925;-51
2023/12/14 00:28:17;;;;;;;;;;;22.40;41.80;;;;;;5016746;28;19936;-50
2023/12/14 00:30:44;;;;;;;;;;;22.40;41.80;;;;;;5016680;28;19965;-50
2023/12/14 00:33:11;;;;;;;;;;;22.40;41.80;;;;;;5016237;28;19932;-49
2023/12/14 00:35:39;;;;;;;;;;;22.40;41.70;;;;;;5016585;28;19933;-51
2023/12/14 00:38:06;;;;;;;;;;;22.40;41.70;;;;;;5016805;28;19925;-52
2023/12/14 00:40:33;;;;;;;;;;;22.40;41.70;;;;;;5016337;28;19930;-51
2023/12/14 00:43:00;;;;;;;;;;;22.40;41.70;;;;;;5016374;28;20374;-50
2023/12/14 00:45:27;;;;;;;;;;;22.40;41.60;;;;;;5035252;28;20274;-51
2023/12/14 00:47:54;;;;;;;;;;;22.40;41.60;;;;;;5036171;28;19981;-55
2023/12/14 00:50:21;;;;;;;;;;;22.40;41.60;;;;;;5020418;28;19929;-54
2023/12/14 00:52:48;;;;;;;;;;;22.40;41.60;;;;;;5016187;28;19929;-56
2023/12/14 00:55:15;;;;;;;;;;;22.30;41.60;;;;;;5015833;28;19974;-54
2023/12/14 00:57:42;;;;;;;;;;;22.40;41.70;;;;;;5015975;28;20367;-56
2023/12/14 01:00:10;;;;;;;;;;;22.40;41.70;;;;;;5015643;28;19925;-55
2023/12/14 01:02:37;;;;;;;;;;;22.40;41.60;;;;;;5016048;28;20323;-54
2023/12/14 01:05:04;;;;;;;;;;;22.30;41.60;;;;;;5015793;28;19975;-56
2023/12/14 01:07:32;;;;;;;;;;;22.40;41.60;;;;;;5015970;28;19929;-55
2023/12/14 01:09:59;;;;;;;;;;;22.40;41.60;;;;;;5015893;28;19932;-53
2023/12/14 01:12:26;;;;;;;;;;;22.40;41.60;;;;;;5015739;28;19938;-55
2023/12/14 01:14:53;;;;;;;;;;;22.30;41.50;;;;;;5015363;28;20031;-53
2023/12/14 01:17:20;;;;;;;;;;;22.30;41.50;;;;;;5015900;28;19968;-53
2023/12/14 01:19:47;;;;;;;;;;;22.30;41.60;;;;;;5015355;28;20391;-54
2023/12/14 01:22:14;;;;;;;;;;;22.30;41.50;;;;;;5015275;28;19933;-49
2023/12/14 01:24:42;;;;;;;;;;;22.30;42.10;;;;;;5015795;28;20327;-54
2023/12/14 01:27:10;;;;;;;;;;;22.30;41.50;;;;;;5015620;28;19929;-50
2023/12/14 01:29:37;;;;;;;;;;;22.30;41.50;;;;;;5015424;28;19925;-53
2023/12/14 01:32:04;;;;;;;;;;;22.30;41.50;;;;;;5015391;28;19965;-52
2023/12/14 01:34:32;;;;;;;;;;;22.30;41.60;;;;;;5015183;28;19929;-54
2023/12/14 01:36:59;;;;;;;;;;;22.30;41.50;;;;;;5015065;28;19925;-52
2023/12/14 01:39:26;;;;;;;;;;;22.30;41.50;;;;;;5015029;28;19976;-51
2023/12/14 01:41:53;;;;;;;;;;;22.30;41.50;;;;;;5014299;28;20033;-51
2023/12/14 01:44:20;;;;;;;;;;;22.30;41.50;;;;;;5015192;28;20454;-49
2023/12/14 01:46:47;;;;;;;;;;;22.30;41.50;;;;;;5014992;28;20020;-52
2023/12/14 01:49:14;;;;;;;;;;;22.30;41.50;;;;;;5015092;28;19933;-50
2023/12/14 01:51:41;;;;;;;;;;;22.30;41.50;;;;;;5013938;28;20020;-55
2023/12/14 01:54:08;;;;;;;;;;;22.30;41.50;;;;;;5015201;28;19952;-55
2023/12/14 01:56:35;;;;;;;;;;;22.30;42.00;;;;;;5014787;28;20395;-51
2023/12/14 01:59:02;;;;;;;;;;;22.30;41.50;;;;;;5015111;28;19926;-49
2023/12/14 02:01:36;;;;;;;;;;;22.30;41.50;;;;;;5014651;28;20406;-50
2023/12/14 02:04:03;;;;;;;;;;;22.30;41.50;;;;;;5015039;28;19932;-50
2023/12/14 02:06:30;;;;;;;;;;;22.30;41.50;;;;;;5014755;28;19925;-50
2023/12/14 02:08:57;;;;;;;;;;;22.30;41.50;;;;;;5014943;28;20290;-50
2023/12/14 02:11:24;;;;;;;;;;;22.30;41.50;;;;;;5014770;28;20021;-50
2023/12/14 02:13:51;;;;;;;;;;;22.30;41.50;;;;;;5014291;28;20272;-50
2023/12/14 02:16:18;;;;;;;;;;;22.30;41.50;;;;;;5014421;28;19925;-51
2023/12/14 02:18:46;;;;;;;;;;;22.30;41.50;;;;;;5014828;28;19925;-51
2023/12/14 02:21:13;;;;;;;;;;;22.30;41.50;;;;;;5014570;28;19925;-52
2023/12/14 02:23:46;;;;;;;;;;;22.30;41.50;;;;;;5014242;28;19975;-51
2023/12/14 02:26:13;;;;;;;;;;;22.20;41.40;;;;;;5033708;28;19931;-50
2023/12/14 02:28:41;;;;;;;;;;;22.20;41.40;;;;;;5034086;28;20371;-53
2023/12/14 02:31:08;;;;;;;;;;;22.20;41.40;;;;;;5034042;28;19944;-52
2023/12/14 02:33:35;;;;;;;;;;;22.20;41.40;;;;;;5033948;28;19925;-51
2023/12/14 02:36:03;;;;;;;;;;;22.20;41.40;;;;;;5033991;28;19925;-49
2023/12/14 02:38:30;;;;;;;;;;;22.20;41.40;;;;;;5033783;28;19925;-50
2023/12/14 02:40:57;;;;;;;;;;;22.20;41.40;;;;;;5033663;28;19925;-50
2023/12/14 02:43:25;;;;;;;;;;;22.20;41.40;;;;;;5016246;28;19925;-50
2023/12/14 02:45:52;;;;;;;;;;;22.20;41.40;;;;;;5015268;28;20023;-53
2023/12/14 02:48:19;;;;;;;;;;;22.20;41.40;;;;;;5014298;28;19926;-56
2023/12/14 02:50:46;;;;;;;;;;;22.20;41.40;;;;;;5013873;28;19925;-54
2023/12/14 02:53:13;;;;;;;;;;;22.20;41.40;;;;;;5018660;28;20037;-56
2023/12/14 02:55:40;;;;;;;;;;;22.20;41.40;;;;;;5030249;28;20280;-52
2023/12/14 02:58:07;;;;;;;;;;;22.20;41.40;;;;;;4994219;28;20299;-55
2023/12/14 03:00:34;;;;;;;;;;;22.20;41.40;;;;;;4994500;28;19925;-55
2023/12/14 03:03:01;;;;;;;;;;;22.20;41.40;;;;;;4998807;28;19933;-51
2023/12/14 03:05:28;;;;;;;;;;;22.20;41.40;;;;;;5011612;28;20338;-55
2023/12/14 03:07:55;;;;;;;;;;;22.20;41.40;;;;;;5013490;28;19926;-57
2023/12/14 03:10:22;;;;;;;;;;;22.20;41.40;;;;;;5013488;28;19969;-55
2023/12/14 03:12:49;;;;;;;;;;;22.20;41.40;;;;;;5013404;28;20382;-55
2023/12/14 03:15:17;;;;;;;;;;;22.20;41.40;;;;;;5013307;28;20387;-51
2023/12/14 03:17:44;;;;;;;;;;;22.20;41.40;;;;;;5013784;28;19925;-52
2023/12/14 03:20:14;;;;;;;;;;;22.20;41.40;;;;;;5030561;28;20019;-51
2023/12/14 03:22:41;;;;;;;;;;;22.30;41.50;;;;;;5010945;28;19965;-50
2023/12/14 03:25:09;;;;;;;;;;;22.20;41.40;;;;;;4995204;28;20024;-54
2023/12/14 03:27:36;;;;;;;;;;;22.20;41.40;;;;;;5017598;28;19926;-50
2023/12/14 03:30:07;;;;;;;;;;;22.20;41.40;;;;;;5017602;28;20393;-56
2023/12/14 03:32:35;;;;;;;;;;;22.20;41.40;;;;;;5017740;28;19976;-51
2023/12/14 03:35:02;;;;;;;;;;;22.20;41.40;;;;;;5017488;28;20051;-54
2023/12/14 03:37:30;;;;;;;;;;;22.20;41.40;;;;;;4999992;28;19932;-55
2023/12/14 03:39:57;;;;;;;;;;;22.20;41.40;;;;;;5010981;28;19926;-50
2023/12/14 03:42:23;;;;;;;;;;;22.20;41.40;;;;;;5017496;28;20012;-55
2023/12/14 03:44:50;;;;;;;;;;;22.20;41.40;;;;;;5017139;28;19972;-50
2023/12/14 03:47:21;;;;;;;;;;;22.20;41.40;;;;;;5017365;28;19961;-50
2023/12/14 03:49:49;;;;;;;;;;;22.20;41.40;;;;;;5017141;28;19973;-49
2023/12/14 03:52:16;;;;;;;;;;;22.20;41.40;;;;;;5017039;28;20394;-50
2023/12/14 03:54:43;;;;;;;;;;;22.20;41.40;;;;;;5007726;28;20376;-51
2023/12/14 03:57:10;;;;;;;;;;;22.20;41.40;;;;;;5008619;28;19961;-51
2023/12/14 03:59:40;;;;;;;;;;;22.20;41.40;;;;;;5006366;28;19972;-51
2023/12/14 04:02:07;;;;;;;;;;;22.10;41.40;;;;;;5007708;28;20284;-49
2023/12/14 04:04:34;;;;;;;;;;;22.10;41.40;;;;;;5006780;28;19930;-50
2023/12/14 04:07:02;;;;;;;;;;;22.10;41.40;;;;;;5000560;28;20449;-51
2023/12/14 04:09:29;;;;;;;;;;;22.10;41.40;;;;;;4997435;28;19930;-50
2023/12/14 04:11:56;;;;;;;;;;;22.10;41.40;;;;;;4997282;28;19969;-52
2023/12/14 04:14:23;;;;;;;;;;;22.10;41.40;;;;;;4996979;28;19973;-49
2023/12/14 04:16:50;;;;;;;;;;;22.20;41.40;;;;;;4997124;28;20296;-51
2023/12/14 04:19:17;;;;;;;;;;;22.10;41.40;;;;;;4997188;28;19929;-49
2023/12/14 04:21:44;;;;;;;;;;;22.10;41.40;;;;;;4997270;28;19926;-50
2023/12/14 04:24:12;;;;;;;;;;;22.10;41.40;;;;;;4996809;28;20038;-49
2023/12/14 04:26:39;;;;;;;;;;;22.10;41.40;;;;;;5004400;28;19987;-50
2023/12/14 04:29:07;;;;;;;;;;;22.10;41.40;;;;;;4999135;28;20424;-51
2023/12/14 04:31:34;;;;;;;;;;;22.10;41.40;;;;;;5033207;28;20011;-50
2023/12/14 04:34:01;;;;;;;;;;;22.10;41.40;;;;;;5036153;28;20378;-51
2023/12/14 04:36:28;;;;;;;;;;;22.10;41.40;;;;;;5028327;28;20015;-51
2023/12/14 04:38:55;;;;;;;;;;;22.10;41.40;;;;;;5016178;28;20326;-51
2023/12/14 04:41:23;;;;;;;;;;;22.10;41.40;;;;;;5016223;28;19925;-50
2023/12/14 04:43:50;;;;;;;;;;;22.10;41.30;;;;;;5016147;28;19925;-53
2023/12/14 04:46:17;;;;;;;;;;;22.20;41.10;;;;;;5016323;28;19929;-54
2023/12/14 04:48:44;;;;;;;;;;;22.30;41.00;;;;;;5016192;28;19925;-54
2023/12/14 04:51:12;;;;;;;;;;;22.40;40.90;;;;;;5016388;28;19926;-56
2023/12/14 04:53:39;;;;;;;;;;;22.40;40.80;;;;;;5016417;28;20275;-54
2023/12/14 04:56:10;;;;;;;;;;;22.40;40.80;;;;;;5015628;28;19925;-56
2023/12/14 04:58:41;;;;;;;;;;;22.50;40.80;;;;;;5015866;28;19971;-55
2023/12/14 05:01:08;;;;;;;;;;;22.50;40.70;;;;;;5016234;28;19925;-55
2023/12/14 05:03:35;;;;;;;;;;;22.50;40.70;;;;;;5016156;28;19925;-55
2023/12/14 05:06:03;;;;;;;;;;;22.50;40.60;;;;;;5023870;28;19932;-52
2023/12/14 05:08:30;;;;;;;;;;;22.60;40.60;;;;;;5035579;28;19925;-56
2023/12/14 05:10:57;;;;;;;;;;;22.60;40.50;;;;;;5035451;28;19925;-55
2023/12/14 05:13:24;;;;;;;;;;;22.70;40.50;;;;;;5035265;28;19971;-53
2023/12/14 05:15:52;;;;;;;;;;;22.70;40.40;;;;;;5035470;28;19929;-54
2023/12/14 05:18:19;;;;;;;;;;;22.70;40.30;;;;;;5035583;28;19979;-56
2023/12/14 05:20:46;;;;;;;;;;;22.80;40.30;;;;;;5011540;28;19925;-53
2023/12/14 05:23:13;;;;;;;;;;;22.80;40.10;;;;;;4996749;28;19992;-52
2023/12/14 05:25:40;;;;;;;;;;;22.80;40.00;;;;;;4995686;28;19926;-56
2023/12/14 05:28:07;;;;;;;;;;;22.90;40.00;;;;;;5001690;28;20013;-55
2023/12/14 05:30:34;;;;;;;;;;;22.90;39.90;;;;;;4985133;28;19926;-53
2023/12/14 05:33:01;;;;;;;;;;;23.00;39.90;;;;;;5002850;28;19926;-51
2023/12/14 05:35:29;;;;;;;;;;;23.00;39.80;;;;;;4995675;28;20065;-51
2023/12/14 05:37:56;;;;;;;;;;;23.10;39.70;;;;;;4995924;28;20292;-54
2023/12/14 05:40:23;;;;;;;;;;;23.10;39.60;;;;;;5006244;28;19932;-52
2023/12/14 05:42:50;;;;;;;;;;;23.20;39.50;;;;;;5005802;28;19949;-56
2023/12/14 05:45:18;;;;;;;;;;;23.20;39.40;;;;;;5005658;28;19925;-53
2023/12/14 05:47:45;;;;;;;;;;;23.30;39.40;;;;;;5008320;28;19972;-54
2023/12/14 05:50:12;;;;;;;;;;;23.30;39.30;;;;;;5005049;28;19947;-50
2023/12/14 05:52:40;;;;;;;;;;;23.30;39.20;;;;;;4988061;28;20338;-50
2023/12/14 05:55:10;;;;;;;;;;;23.40;39.20;;;;;;5003103;28;20384;-51
2023/12/14 05:57:37;;;;;;;;;;;23.40;39.10;;;;;;5009706;28;19980;-51
2023/12/14 06:00:05;;;;;;;;;;;23.40;39.00;;;;;;5006394;28;19949;-50
2023/12/14 06:02:32;;;;;;;;;;;23.50;39.00;;;;;;5006430;28;19925;-49
2023/12/14 06:05:00;;;;;;;;;;;23.50;38.90;;;;;;5007004;28;20371;-49
2023/12/14 06:07:27;;;;;;;;;;;23.60;38.90;;;;;;5003743;28;19929;-53
2023/12/14 06:09:54;;;;;;;;;;;23.60;38.80;;;;;;5007662;28;19933;-53
2023/12/14 06:12:21;;;;;;;;;;;23.60;38.90;;;;;;5009564;28;19929;-53
2023/12/14 06:14:49;;;;;;;;;;;23.60;38.90;;;;;;5008000;28;19932;-55
2023/12/14 06:17:16;;;;;;;;;;;23.60;38.80;;;;;;5011891;28;19953;-54
2023/12/14 06:19:44;;;;;;;;;;;23.70;38.80;;;;;;5013640;28;20446;-57
2023/12/14 06:22:11;;;;;;;;;;;23.70;38.80;;;;;;5008509;28;19948;-54
2023/12/14 06:24:38;;;;;;;;;;;23.80;38.70;;;;;;5004535;28;19925;-58
2023/12/14 06:27:05;;;;;;;;;;;23.90;38.70;;;;;;5002582;28;20367;-53
2023/12/14 06:29:32;;;;;;;;;;;23.90;38.50;;;;;;5007305;28;19965;-57
2023/12/14 06:31:59;;;;;;;;;;;23.90;38.50;;;;;;5003533;28;20371;-54
2023/12/14 06:34:26;;;;;;;;;;;24.00;38.40;;;;;;4999998;28;19960;-53
2023/12/14 06:36:53;;;;;;;;;;;24.00;38.40;;;;;;5006172;28;19925;-55
2023/12/14 06:39:20;;;;;;;;;;;24.10;38.40;;;;;;5002065;28;19969;-58
2023/12/14 06:41:47;;;;;;;;;;;24.10;38.60;;;;;;5003225;28;19925;-57
2023/12/14 06:44:14;;;;;;;;;;;24.10;38.70;;;;;;5003807;28;20029;-57
2023/12/14 06:46:41;;;;;;;;;;;24.20;39.10;;;;;;5004490;28;19934;-58
2023/12/14 06:49:08;;;;;;;;;;;24.20;39.00;;;;;;5002592;28;19965;-57
2023/12/14 06:51:36;;;;;;;;;;;24.20;38.90;;;;;;5000145;28;19926;-55
2023/12/14 06:54:03;;;;;;;;;;;24.20;38.80;;;;;;5001241;28;19980;-53
2023/12/14 06:56:30;;;;;;;;;;;24.20;38.70;;;;;;5001894;28;19933;-55
2023/12/14 06:58:57;;;;;;;;;;;24.30;38.80;;;;;;5003394;28;19925;-57
2023/12/14 07:01:24;;;;;;;;;;;24.30;38.90;;;;;;5003093;28;19932;-55
2023/12/14 07:03:52;;;;;;;;;;;24.30;38.80;;;;;;5001285;28;19941;-53
2023/12/14 07:06:19;;;;;;;;;;;24.30;38.70;;;;;;4996206;28;19978;-58
2023/12/14 07:08:47;;;;;;;;;;;24.40;38.80;;;;;;4995855;28;19929;-57
2023/12/14 07:11:15;;;;;;;;;;;24.40;38.70;;;;;;4999673;28;19929;-54
2023/12/14 07:13:45;;;;;;;;;;;24.50;39.00;;;;;;5002537;28;20016;-54
2023/12/14 07:16:13;;;;;;;;;;;24.50;39.00;;;;;;5000343;28;19973;-56
2023/12/14 07:18:41;;;;;;;;;;;24.60;39.00;;;;;;5001216;28;19930;-54
2023/12/14 07:21:08;;;;;;;;;;;24.60;38.90;;;;;;5006255;28;19996;-54
2023/12/14 07:23:35;;;;;;;;;;;24.60;38.70;;;;;;5005796;28;19933;-52
2023/12/14 07:26:03;;;;;;;;;;;24.70;38.90;;;;;;5002173;28;19961;-51
2023/12/14 07:28:33;;;;;;;;;;;24.70;38.60;;;;;;5001803;28;19961;-57
2023/12/14 07:31:03;;;;;;;;;;;24.70;38.50;;;;;;5004613;28;20458;-54
2023/12/14 07:33:31;;;;;;;;;;;24.70;38.40;;;;;;5003071;28;19938;-55
2023/12/14 07:35:58;;;;;;;;;;;24.80;38.30;;;;;;4981072;28;19933;-51
2023/12/14 07:38:25;;;;;;;;;;;24.90;38.30;;;;;;5004786;28;19929;-52
2023/12/14 07:40:52;;;;;;;;;;;24.90;38.30;;;;;;5001025;28;19981;-57
2023/12/14 07:43:19;;;;;;;;;;;24.90;38.30;;;;;;5007662;28;19926;-50
2023/12/14 07:45:47;;;;;;;;;;;24.90;38.30;;;;;;5002603;28;19925;-58
2023/12/14 07:48:14;;;;;;;;;;;25.00;38.20;;;;;;5002010;28;19925;-54
2023/12/14 07:50:41;;;;;;;;;;;25.00;38.30;;;;;;5001840;28;20032;-53
2023/12/14 07:53:08;;;;;;;;;;;25.00;38.40;;;;;;5001985;28;20391;-56
2023/12/14 07:55:35;;;;;;;;;;;25.00;38.30;;;;;;5000746;28;19925;-52
2023/12/14 07:58:02;;;;;;;;;;;25.00;38.30;;;;;;5004822;28;19933;-55
2023/12/14 08:00:33;;;;;;;;;;;25.00;38.20;;;;;;4998276;28;19926;-55
2023/12/14 08:03:00;;;;;;;;;;;25.10;38.20;;;;;;4998499;28;19933;-53
2023/12/14 08:05:27;;;;;;;;;;;25.10;38.10;;;;;;5001621;28;19937;-53
2023/12/14 08:07:55;;;;;;;;;;;25.10;38.00;;;;;;4979232;28;19937;-56
2023/12/14 08:10:22;;;;;;;;;;;25.20;38.10;;;;;;4995536;28;19956;-57
2023/12/14 08:12:51;;;;;;;;;;;25.20;38.20;;;;;;5001156;28;20016;-54
2023/12/14 08:15:18;;;;;;;;;;;25.30;38.20;;;;;;4999272;28;19940;-56
2023/12/14 08:17:45;;;;;;;;;;;25.30;38.10;;;;;;5003055;28;19933;-54
2023/12/14 08:20:13;;;;;;;;;;;25.30;38.20;;;;;;5000786;28;20614;-57
2023/12/14 08:22:44;;;;;;;;;;;25.30;38.30;;;;;;4983327;28;19933;-57
2023/12/14 08:25:14;;;;;;;;;;;25.30;38.20;;;;;;5001117;28;19933;-56
2023/12/14 08:27:41;;;;;;;;;;;25.40;38.20;;;;;;5001382;28;19940;-56
2023/12/14 08:30:09;;;;;;;;;;;25.40;38.10;;;;;;5002042;28;20804;-57
2023/12/14 08:32:36;;;;;;;;;;;25.40;38.00;;;;;;4995283;28;19940;-59
2023/12/14 08:35:04;;;;;;;;;;;25.40;38.10;;;;;;5004254;28;19933;-55
2023/12/14 08:37:31;;;;;;;;;;;25.40;38.00;;;;;;5000886;28;21024;-60
2023/12/14 08:39:58;;;;;;;;;;;25.40;37.90;;;;;;4979749;28;19933;-54
2023/12/14 08:42:25;;;;;;;;;;;25.50;38.00;;;;;;4997580;28;19933;-56
2023/12/14 08:44:52;;;;;;;;;;;25.50;38.00;;;;;;4977847;28;19968;-56
2023/12/14 08:47:19;;;;;;;;;;;25.60;38.40;;;;;;4995637;28;19939;-56
2023/12/14 08:49:47;;;;;;;;;;;25.60;38.40;;;;;;4998923;28;19956;-53
2023/12/14 08:52:14;;;;;;;;;;;25.70;38.40;;;;;;4993104;28;19933;-54
2023/12/14 08:54:44;;;;;;;;;;;25.70;38.30;;;;;;4994492;28;20410;-51
2023/12/14 08:57:11;;;;;;;;;;;25.70;38.10;;;;;;4996153;28;20419;-54
2023/12/14 08:59:38;;;;;;;;;;;25.70;37.80;;;;;;4997106;28;20198;-53
2023/12/14 09:02:10;;;;;;;;;;;25.80;37.70;;;;;;4998802;28;19951;-52
2023/12/14 09:04:37;;;;;;;;;;;25.90;37.80;;;;;;4977524;28;19933;-54
2023/12/14 09:07:05;;;;;;;;;;;25.90;37.90;;;;;;4977753;28;19934;-55
2023/12/14 09:09:32;;;;;;;;;;;26.00;37.90;;;;;;4983996;28;19933;-52
2023/12/14 09:11:59;;;;;;;;;;;26.00;37.90;;;;;;4985376;28;20023;-54
2023/12/14 09:14:26;;;;;;;;;;;26.00;37.80;;;;;;4977569;28;20575;-52
2023/12/14 09:16:53;;;;;;;;;;;26.10;37.70;;;;;;4959773;28;20894;-54
2023/12/14 09:19:21;;;;;;;;;;;26.20;37.70;;;;;;4979969;28;20330;-54
2023/12/14 09:21:48;;;;;;;;;;;26.20;37.60;;;;;;4978056;28;20009;-49
2023/12/14 09:24:15;;;;;;;;;;;26.20;37.60;;;;;;4997489;28;20383;-51
2023/12/14 09:26:43;;;;;;;;;;;26.30;37.40;;;;;;4998696;28;20016;-54
2023/12/14 09:29:10;;;;;;;;;;;26.30;37.40;;;;;;5002259;28;20402;-55
2023/12/14 09:31:40;;;;;;;;;;;26.40;37.40;;;;;;4984644;28;19932;-52
2023/12/14 09:34:08;;;;;;;;;;;26.40;37.20;;;;;;5005960;28;19933;-52
2023/12/14 09:36:36;;;;;;;;;;;26.40;37.10;;;;;;5005658;28;19932;-51
2023/12/14 09:39:10;;;;;;;;;;;26.40;37.00;;;;;;5004379;28;19925;-53
2023/12/14 09:41:38;;;;;;;;;;;26.40;37.10;;;;;;5004811;28;20268;-53
2023/12/14 09:44:06;;;;;;;;;;;26.40;37.10;;;;;;5000723;28;19926;-56
2023/12/14 09:46:36;;;;;;;;;;;26.40;36.90;;;;;;5004205;28;20380;-55
2023/12/14 09:49:04;;;;;;;;;;;26.50;36.90;;;;;;5000212;28;19934;-56
2023/12/14 09:51:34;;;;;;;;;;;26.50;36.90;;;;;;5005445;28;19933;-54
2023/12/14 09:54:01;;;;;;;;;;;26.50;36.80;;;;;;4985443;28;21437;-56
2023/12/14 09:56:28;;;;;;;;;;;26.60;36.90;;;;;;4998717;28;19972;-54
2023/12/14 09:58:55;;;;;;;;;;;26.60;36.70;;;;;;5006227;28;20036;-58
2023/12/14 10:01:26;;;;;;;;;;;26.70;36.80;;;;;;5001403;28;19980;-54
2023/12/14 10:04:10;;;;;;;;;;;26.70;36.80;;;;;;5003172;28;20398;-54
2023/12/14 10:06:37;;;;;;;;;;;26.70;36.70;;;;;;5005413;28;19933;-54
2023/12/14 10:09:09;;;;;;;;;;;26.70;36.90;;;;;;4998019;28;19934;-59
2023/12/14 10:11:37;;;;;;;;;;;26.70;37.10;;;;;;5002713;28;20018;-53
2023/12/14 10:14:20;;;;;;;;;;;26.70;37.20;;;;;;5003271;28;19938;-55
2023/12/14 10:16:49;;;;;;;;;;;26.70;37.20;;;;;;5004596;28;20433;-55
2023/12/14 10:19:18;;;;;;;;;;;26.70;37.10;;;;;;4999875;28;19932;-58
2023/12/14 10:21:46;;;;;;;;;;;26.80;37.30;;;;;;5003582;28;19929;-58
2023/12/14 10:24:14;;;;;;;;;;;26.80;37.30;;;;;;5002284;28;19980;-58
2023/12/14 10:26:46;;;;;;;;;;;26.70;37.10;;;;;;5004070;28;20283;-58
2023/12/14 10:29:13;;;;;;;;;;;26.80;37.10;;;;;;5000783;28;19976;-58
2023/12/14 10:31:41;;;;;;;;;;;26.70;37.00;;;;;;4998550;28;20427;-58
2023/12/14 10:34:08;;;;;;;;;;;26.80;37.10;;;;;;5003163;28;20028;-58
2023/12/14 10:36:36;;;;;;;;;;;26.80;37.10;;;;;;4999093;28;19929;-57
2023/12/14 10:39:05;;;;;;;;;;;26.80;37.00;;;;;;5000326;28;19934;-58
2023/12/14 10:41:33;;;;;;;;;;;26.80;37.00;;;;;;5007925;28;20012;-57
2023/12/14 10:44:00;;;;;;;;;;;26.80;37.10;;;;;;5001029;28;19936;-57
2023/12/14 10:46:48;;;;;;;;;;;26.90;37.20;;;;;;4999407;28;19934;-58
2023/12/14 10:49:15;;;;;;;;;;;26.90;37.20;;;;;;5001417;28;20382;-57
2023/12/14 10:51:42;;;;;;;;;;;26.90;37.20;;;;;;5002972;28;19932;-54
2023/12/14 10:54:14;;;;;;;;;;;26.90;37.10;;;;;;5004139;28;20083;-57
2023/12/14 10:56:41;;;;;;;;;;;27.00;37.20;;;;;;5001543;28;20338;-58
2023/12/14 10:59:09;;;;;;;;;;;27.00;37.30;;;;;;5005458;28;19925;-56
2023/12/14 11:01:39;;;;;;;;;;;27.00;37.20;;;;;;5009675;28;20625;-55
2023/12/14 11:04:12;;;;;;;;;;;27.00;37.10;;;;;;4987325;28;19926;-58
2023/12/14 11:06:40;;;;;;;;;;;27.00;37.10;;;;;;5001751;28;19933;-54
2023/12/14 11:09:10;;;;;;;;;;;27.00;37.00;;;;;;4996989;28;19930;-56
2023/12/14 11:11:43;;;;;;;;;;;27.00;36.90;;;;;;5010196;28;20304;-57
2023/12/14 11:14:12;;;;;;;;;;;27.10;37.00;;;;;;4991919;28;19977;-55
2023/12/14 11:16:45;;;;;;;;;;;27.10;36.90;;;;;;5015577;28;19929;-57
2023/12/14 11:19:26;;;;;;;;;;;27.10;36.90;;;;;;5004011;28;20008;-56
2023/12/14 11:22:16;;;;;;;;;;;27.10;36.80;;;;;;5003042;28;20342;-54
2023/12/14 11:24:51;;;;;;;;;;;27.10;36.70;;;;;;4994516;28;19987;-52
2023/12/14 11:27:25;;;;;;;;;;;27.10;36.40;;;;;;5004037;28;20290;-56
2023/12/14 11:29:52;;;;;;;;;;;27.10;36.10;;;;;;5000991;28;19925;-55
2023/12/14 11:32:20;;;;;;;;;;;27.10;36.00;;;;;;5009702;28;20249;-59
2023/12/14 11:34:47;;;;;;;;;;;27.10;36.00;;;;;;4991704;28;19977;-56
2023/12/14 11:37:14;;;;;;;;;;;27.00;36.20;;;;;;5013243;28;20296;-56
2023/12/14 11:39:42;;;;;;;;;;;27.00;36.30;;;;;;5005397;28;20017;-56
2023/12/14 11:42:10;;;;;;;;;;;27.10;36.30;;;;;;4987186;28;19940;-55
2023/12/14 11:44:37;;;;;;;;;;;27.00;36.40;;;;;;5007122;28;19972;-55
2023/12/14 11:47:05;;;;;;;;;;;27.00;36.60;;;;;;5011075;28;19925;-57
2023/12/14 11:49:32;;;;;;;;;;;27.10;36.50;;;;;;5008197;28;19935;-55
2023/12/14 11:52:01;;;;;;;;;;;27.10;36.30;;;;;;5011261;28;19934;-55
2023/12/14 11:54:29;;;;;;;;;;;27.10;36.30;;;;;;5010687;28;19933;-57
2023/12/14 11:56:56;;;;;;;;;;;27.00;36.30;;;;;;5010935;28;20021;-56
2023/12/14 11:59:23;;;;;;;;;;;27.00;36.30;;;;;;5008379;28;19926;-57
2023/12/14 12:01:53;;;;;;;;;;;27.00;36.30;;;;;;5007759;28;19956;-58
2023/12/14 12:04:20;;;;;;;;;;;27.00;36.40;;;;;;5006047;28;19929;-54
2023/12/14 12:06:48;;;;;;;;;;;27.00;36.40;;;;;;5007119;28;19982;-58
2023/12/14 12:09:35;;;;;;;;;;;27.00;36.40;;;;;;5005753;28;19980;-57
2023/12/14 12:12:05;;;;;;;;;;;27.00;36.40;;;;;;5011868;28;19930;-57
2023/12/14 12:14:32;;;;;;;;;;;27.00;36.40;;;;;;5004381;28;19933;-57
2023/12/14 12:17:01;;;;;;;;;;;27.00;36.40;;;;;;5003120;28;20104;-55
2023/12/14 12:19:28;;;;;;;;;;;26.90;36.30;;;;;;5003353;28;20395;-57
2023/12/14 12:21:55;;;;;;;;;;;26.90;36.30;;;;;;5008995;28;19925;-56
2023/12/14 12:24:22;;;;;;;;;;;26.90;36.30;;;;;;5004919;28;20269;-57
2023/12/14 12:26:53;;;;;;;;;;;26.90;36.30;;;;;;5005799;28;19942;-56
2023/12/14 12:29:21;;;;;;;;;;;26.90;36.30;;;;;;5009626;28;19925;-56
2023/12/14 12:31:49;;;;;;;;;;;27.00;36.40;;;;;;5002488;28;20029;-56
2023/12/14 12:34:16;;;;;;;;;;;26.90;36.20;;;;;;5005428;28;19930;-55
2023/12/14 12:36:43;;;;;;;;;;;26.90;36.10;;;;;;5007394;28;19937;-56
2023/12/14 12:39:10;;;;;;;;;;;26.90;34.80;;;;;;5005007;28;19933;-55
2023/12/14 12:41:37;;;;;;;;;;;26.90;34.40;;;;;;5011516;28;20014;-55
2023/12/14 12:44:05;;;;;;;;;;;26.80;34.30;;;;;;5008531;28;19933;-62
2023/12/14 12:46:33;;;;;;;;;;;26.80;34.80;;;;;;5005447;28;20399;-53
2023/12/14 12:49:04;;;;;;;;;;;26.80;34.90;;;;;;5007997;28;19933;-55
2023/12/14 12:51:32;;;;;;;;;;;26.70;34.90;;;;;;5008581;28;19931;-55
2023/12/14 12:53:59;;;;;;;;;;;26.70;35.20;;;;;;5005792;28;19936;-57
2023/12/14 12:56:38;;;;;;;;;;;26.70;35.70;;;;;;5000465;28;19940;-55
2023/12/14 12:59:05;;;;;;;;;;;26.80;35.10;;;;;;5003003;28;20309;-56
2023/12/14 13:01:36;;;;;;;;;;;26.80;35.10;;;;;;5010277;28;19926;-56
2023/12/14 13:04:04;;;;;;;;;;;26.80;35.10;;;;;;5005544;28;19968;-56
2023/12/14 13:06:31;;;;;;;;;;;26.80;35.00;;;;;;5007417;28;19980;-57
2023/12/14 13:08:59;;;;;;;;;;;26.80;35.00;;;;;;5004936;28;19932;-57
2023/12/14 13:11:25;;;;;;;;;;;26.80;35.20;;;;;;5004591;28;20375;-59
2023/12/14 13:13:53;;;;;;;;;;;26.80;35.20;;;;;;5003922;28;19928;-58
2023/12/14 13:16:20;;;;;;;;;;;26.80;35.40;;;;;;5007995;28;20421;-57
2023/12/14 13:18:47;;;;;;;;;;;26.70;35.40;;;;;;5008580;28;19957;-61
2023/12/14 13:21:17;;;;;;;;;;;26.60;35.50;;;;;;5004515;28;19984;-65
2023/12/14 13:23:45;;;;;;;;;;;26.60;35.70;;;;;;5004196;28;19929;-59
2023/12/14 13:26:12;;;;;;;;;;;26.50;35.80;;;;;;5004624;28;20010;-66
2023/12/14 13:28:39;;;;;;;;;;;26.50;35.80;;;;;;5003669;28;19925;-63
2023/12/14 13:31:06;;;;;;;;;;;26.50;35.90;;;;;;5005075;28;20375;-60
2023/12/14 13:33:33;;;;;;;;;;;26.40;36.00;;;;;;5005086;28;19965;-66
2023/12/14 13:36:00;;;;;;;;;;;26.40;36.00;;;;;;4998144;28;20327;-55
2023/12/14 13:38:27;;;;;;;;;;;26.30;36.00;;;;;;5001259;28;19964;-60
2023/12/14 13:40:55;;;;;;;;;;;26.30;36.10;;;;;;5005311;28;19933;-60
2023/12/14 13:43:22;;;;;;;;;;;26.20;36.20;;;;;;5004460;28;19937;-59
2023/12/14 13:45:52;;;;;;;;;;;26.10;36.10;;;;;;5004034;28;19926;-59
2023/12/14 13:48:40;;;;;;;;;;;26.20;36.30;;;;;;5005199;28;20020;-57
2023/12/14 13:51:08;;;;;;;;;;;26.10;36.30;;;;;;5004957;28;19929;-62
2023/12/14 13:53:35;;;;;;;;;;;26.10;36.30;;;;;;5004815;28;19937;-59
2023/12/14 13:56:02;;;;;;;;;;;26.10;36.30;;;;;;5007287;28;19984;-59
2023/12/14 13:58:30;;;;;;;;;;;26.10;36.50;;;;;;4978298;28;20032;-64
2023/12/14 14:00:57;;;;;;;;;;;26.10;36.60;;;;;;5000401;28;19925;-62
2023/12/14 14:03:27;;;;;;;;;;;26.00;36.70;;;;;;5002633;28;20007;-58
2023/12/14 14:05:55;;;;;;;;;;;26.00;36.70;;;;;;5005026;28;19925;-64
2023/12/14 14:08:22;;;;;;;;;;;25.90;36.70;;;;;;4997145;28;19971;-59
2023/12/14 14:10:49;;;;;;;;;;;26.00;36.70;;;;;;4997991;28;19934;-56
2023/12/14 14:13:21;;;;;;;;;;;25.90;36.70;;;;;;4997230;28;19941;-59
2023/12/14 14:15:48;;;;;;;;;;;25.90;36.70;;;;;;5000740;28;19941;-58
2023/12/14 14:18:15;;;;;;;;;;;25.90;36.80;;;;;;4999740;28;19987;-57
2023/12/14 14:20:42;;;;;;;;;;;25.90;37.00;;;;;;5001579;28;19925;-58